sensor_id;sensor_type;location;lat;lon;timestamp;P1;durP1;ratioP1;P2;durP2;ratioP2
14143;SDS011;7152;48.348;10.980;2023-02-01T00:00:46;6.83;;;5.77;;
14143;SDS011;7152;48.348;10.980;2023-02-01T00:03:11;7.47;;;5.77;;
14143;SDS011;7152;48.348;10.980;2023-02-01T00:05:38;6.37;;;5.77;;
14143;SDS011;7152;48.348;10.980;2023-02-01T00:08:04;6.77;;;5.53;;
14143;SDS011;7152;48.348;10.980;2023-02-01T00:10:29;7.10;;;5.83;;
14143;SDS011;7152;48.348;10.980;2023-02-01T00:12:55;7.83;;;5.70;;
14143;SDS011;7152;48.348;10.980;2023-02-01T00:15:21;7.10;;;5.20;;
14143;SDS011;7152;48.348;10.980;2023-02-01T00:17:48;7.53;;;5.73;;
14143;SDS011;7152;48.348;10.980;2023-02-01T00:20:17;6.90;;;5.10;;
14143;SDS011;7152;48.348;10.980;2023-02-01T00:22:43;6.67;;;5.33;;
14143;SDS011;7152;48.348;10.980;2023-02-01T00:25:09;5.07;;;4.57;;
14143;SDS011;7152;48.348;10.980;2023-02-01T00:27:34;6.47;;;5.57;;
14143;SDS011;7152;48.348;10.980;2023-02-01T00:30:00;5.73;;;5.07;;
14143;SDS011;7152;48.348;10.980;2023-02-01T00:32:25;6.77;;;5.47;;
14143;SDS011;7152;48.348;10.980;2023-02-01T00:34:51;7.27;;;5.10;;
14143;SDS011;7152;48.348;10.980;2023-02-01T00:37:17;7.97;;;5.13;;
14143;SDS011;7152;48.348;10.980;2023-02-01T00:39:42;7.43;;;5.37;;
14143;SDS011;7152;48.348;10.980;2023-02-01T00:42:08;7.93;;;5.40;;
14143;SDS011;7152;48.348;10.980;2023-02-01T00:44:34;7.37;;;5.60;;
14143;SDS011;7152;48.348;10.980;2023-02-01T00:47:00;9.90;;;5.90;;
14143;SDS011;7152;48.348;10.980;2023-02-01T00:49:26;6.47;;;5.80;;
14143;SDS011;7152;48.348;10.980;2023-02-01T00:51:53;6.83;;;5.77;;
14143;SDS011;7152;48.348;10.980;2023-02-01T00:54:18;7.40;;;5.67;;
14143;SDS011;7152;48.348;10.980;2023-02-01T00:56:44;9.33;;;5.97;;
14143;SDS011;7152;48.348;10.980;2023-02-01T00:59:13;7.80;;;6.13;;
14143;SDS011;7152;48.348;10.980;2023-02-01T01:01:38;6.37;;;5.67;;
14143;SDS011;7152;48.348;10.980;2023-02-01T01:04:04;7.53;;;5.93;;
14143;SDS011;7152;48.348;10.980;2023-02-01T01:06:30;7.33;;;6.17;;
14143;SDS011;7152;48.348;10.980;2023-02-01T01:08:58;6.60;;;5.60;;
14143;SDS011;7152;48.348;10.980;2023-02-01T01:11:26;6.77;;;5.73;;
14143;SDS011;7152;48.348;10.980;2023-02-01T01:13:54;8.17;;;5.67;;
14143;SDS011;7152;48.348;10.980;2023-02-01T01:16:21;6.33;;;5.53;;
14143;SDS011;7152;48.348;10.980;2023-02-01T01:18:48;9.20;;;6.00;;
14143;SDS011;7152;48.348;10.980;2023-02-01T01:21:15;9.00;;;6.37;;
14143;SDS011;7152;48.348;10.980;2023-02-01T01:23:42;8.27;;;6.20;;
14143;SDS011;7152;48.348;10.980;2023-02-01T01:26:09;7.83;;;6.70;;
14143;SDS011;7152;48.348;10.980;2023-02-01T01:28:38;7.53;;;6.20;;
14143;SDS011;7152;48.348;10.980;2023-02-01T01:31:07;7.67;;;6.00;;
14143;SDS011;7152;48.348;10.980;2023-02-01T01:33:34;9.60;;;6.60;;
14143;SDS011;7152;48.348;10.980;2023-02-01T01:36:00;8.47;;;6.30;;
14143;SDS011;7152;48.348;10.980;2023-02-01T01:38:25;8.80;;;6.90;;
14143;SDS011;7152;48.348;10.980;2023-02-01T01:40:51;8.47;;;6.53;;
14143;SDS011;7152;48.348;10.980;2023-02-01T01:43:17;8.17;;;6.47;;
14143;SDS011;7152;48.348;10.980;2023-02-01T01:45:47;10.37;;;7.00;;
14143;SDS011;7152;48.348;10.980;2023-02-01T01:48:16;7.70;;;6.73;;
14143;SDS011;7152;48.348;10.980;2023-02-01T01:51:04;9.07;;;6.60;;
14143;SDS011;7152;48.348;10.980;2023-02-01T01:53:43;7.63;;;6.63;;
14143;SDS011;7152;48.348;10.980;2023-02-01T01:56:13;7.37;;;6.33;;
14143;SDS011;7152;48.348;10.980;2023-02-01T01:58:39;8.73;;;7.33;;
14143;SDS011;7152;48.348;10.980;2023-02-01T02:01:05;10.13;;;7.03;;
14143;SDS011;7152;48.348;10.980;2023-02-01T02:03:43;9.10;;;7.00;;
14143;SDS011;7152;48.348;10.980;2023-02-01T02:09:18;10.07;;;6.10;;
14143;SDS011;7152;48.348;10.980;2023-02-01T02:11:43;10.70;;;7.93;;
14143;SDS011;7152;48.348;10.980;2023-02-01T02:14:11;8.83;;;6.50;;
14143;SDS011;7152;48.348;10.980;2023-02-01T02:39:06;8.03;;;6.40;;
14143;SDS011;7152;48.348;10.980;2023-02-01T02:44:39;6.87;;;5.80;;
14143;SDS011;7152;48.348;10.980;2023-02-01T02:56:27;7.23;;;6.00;;
14143;SDS011;7152;48.348;10.980;2023-02-01T02:59:14;7.20;;;5.37;;
14143;SDS011;7152;48.348;10.980;2023-02-01T03:02:01;8.70;;;5.97;;
14143;SDS011;7152;48.348;10.980;2023-02-01T03:04:45;5.60;;;5.00;;
14143;SDS011;7152;48.348;10.980;2023-02-01T03:07:42;6.30;;;5.63;;
14143;SDS011;7152;48.348;10.980;2023-02-01T03:12:49;6.23;;;5.50;;
14143;SDS011;7152;48.348;10.980;2023-02-01T03:15:43;7.13;;;6.07;;
14143;SDS011;7152;48.348;10.980;2023-02-01T03:18:15;7.10;;;5.63;;
14143;SDS011;7152;48.348;10.980;2023-02-01T03:21:04;6.87;;;5.30;;
14143;SDS011;7152;48.348;10.980;2023-02-01T03:23:35;6.83;;;5.20;;
14143;SDS011;7152;48.348;10.980;2023-02-01T03:26:04;6.70;;;5.13;;
14143;SDS011;7152;48.348;10.980;2023-02-01T03:28:35;6.27;;;5.37;;
14143;SDS011;7152;48.348;10.980;2023-02-01T03:31:07;5.80;;;4.83;;
14143;SDS011;7152;48.348;10.980;2023-02-01T03:33:33;7.07;;;5.10;;
14143;SDS011;7152;48.348;10.980;2023-02-01T03:38:52;5.63;;;5.03;;
14143;SDS011;7152;48.348;10.980;2023-02-01T03:49:37;7.20;;;5.40;;
14143;SDS011;7152;48.348;10.980;2023-02-01T03:52:05;7.10;;;5.70;;
14143;SDS011;7152;48.348;10.980;2023-02-01T03:54:33;6.57;;;4.83;;
14143;SDS011;7152;48.348;10.980;2023-02-01T03:57:00;6.33;;;5.67;;
14143;SDS011;7152;48.348;10.980;2023-02-01T03:59:30;6.47;;;4.90;;
14143;SDS011;7152;48.348;10.980;2023-02-01T04:01:55;7.57;;;5.10;;
14143;SDS011;7152;48.348;10.980;2023-02-01T04:04:21;5.37;;;4.80;;
14143;SDS011;7152;48.348;10.980;2023-02-01T04:06:47;5.30;;;4.73;;
14143;SDS011;7152;48.348;10.980;2023-02-01T04:09:16;7.37;;;5.23;;
14143;SDS011;7152;48.348;10.980;2023-02-01T04:11:42;5.30;;;4.80;;
14143;SDS011;7152;48.348;10.980;2023-02-01T04:14:08;7.00;;;5.63;;
14143;SDS011;7152;48.348;10.980;2023-02-01T04:16:34;6.43;;;4.90;;
14143;SDS011;7152;48.348;10.980;2023-02-01T04:19:00;4.83;;;4.33;;
14143;SDS011;7152;48.348;10.980;2023-02-01T04:21:26;5.47;;;4.97;;
14143;SDS011;7152;48.348;10.980;2023-02-01T04:23:52;4.73;;;4.33;;
14143;SDS011;7152;48.348;10.980;2023-02-01T04:26:18;5.07;;;4.27;;
14143;SDS011;7152;48.348;10.980;2023-02-01T04:28:45;5.13;;;4.10;;
14143;SDS011;7152;48.348;10.980;2023-02-01T04:31:15;5.83;;;4.93;;
14143;SDS011;7152;48.348;10.980;2023-02-01T04:33:41;5.40;;;4.90;;
14143;SDS011;7152;48.348;10.980;2023-02-01T04:36:07;5.77;;;4.50;;
14143;SDS011;7152;48.348;10.980;2023-02-01T04:38:33;4.37;;;3.97;;
14143;SDS011;7152;48.348;10.980;2023-02-01T04:40:59;5.73;;;4.97;;
14143;SDS011;7152;48.348;10.980;2023-02-01T04:43:25;5.10;;;4.53;;
14143;SDS011;7152;48.348;10.980;2023-02-01T04:45:51;4.70;;;4.20;;
14143;SDS011;7152;48.348;10.980;2023-02-01T04:48:17;4.33;;;3.93;;
14143;SDS011;7152;48.348;10.980;2023-02-01T04:50:44;5.37;;;4.43;;
14143;SDS011;7152;48.348;10.980;2023-02-01T04:53:16;4.50;;;4.10;;
14143;SDS011;7152;48.348;10.980;2023-02-01T04:55:43;6.47;;;4.77;;
14143;SDS011;7152;48.348;10.980;2023-02-01T04:58:09;4.60;;;4.17;;
14143;SDS011;7152;48.348;10.980;2023-02-01T05:00:34;5.07;;;4.53;;
14143;SDS011;7152;48.348;10.980;2023-02-01T05:03:01;4.90;;;4.40;;
14143;SDS011;7152;48.348;10.980;2023-02-01T05:05:27;4.73;;;4.23;;
14143;SDS011;7152;48.348;10.980;2023-02-01T05:07:52;4.93;;;4.10;;
14143;SDS011;7152;48.348;10.980;2023-02-01T05:10:18;7.03;;;4.20;;
14143;SDS011;7152;48.348;10.980;2023-02-01T05:12:44;4.70;;;4.20;;
14143;SDS011;7152;48.348;10.980;2023-02-01T05:15:29;5.00;;;4.50;;
14143;SDS011;7152;48.348;10.980;2023-02-01T05:17:55;4.90;;;4.40;;
14143;SDS011;7152;48.348;10.980;2023-02-01T05:20:21;6.20;;;4.63;;
14143;SDS011;7152;48.348;10.980;2023-02-01T05:22:47;5.77;;;5.07;;
14143;SDS011;7152;48.348;10.980;2023-02-01T05:25:12;5.17;;;4.67;;
14143;SDS011;7152;48.348;10.980;2023-02-01T05:27:38;5.80;;;4.60;;
14143;SDS011;7152;48.348;10.980;2023-02-01T05:30:04;5.43;;;4.77;;
14143;SDS011;7152;48.348;10.980;2023-02-01T05:32:31;4.90;;;4.50;;
14143;SDS011;7152;48.348;10.980;2023-02-01T05:34:57;5.60;;;5.10;;
14143;SDS011;7152;48.348;10.980;2023-02-01T05:37:22;6.07;;;4.10;;
14143;SDS011;7152;48.348;10.980;2023-02-01T05:39:48;6.80;;;4.90;;
14143;SDS011;7152;48.348;10.980;2023-02-01T05:42:14;5.10;;;4.60;;
14143;SDS011;7152;48.348;10.980;2023-02-01T05:44:40;5.47;;;4.97;;
14143;SDS011;7152;48.348;10.980;2023-02-01T05:47:05;5.90;;;4.70;;
14143;SDS011;7152;48.348;10.980;2023-02-01T05:49:31;5.10;;;4.60;;
14143;SDS011;7152;48.348;10.980;2023-02-01T05:51:57;5.33;;;4.53;;
14143;SDS011;7152;48.348;10.980;2023-02-01T05:54:23;4.93;;;4.40;;
14143;SDS011;7152;48.348;10.980;2023-02-01T05:56:49;4.77;;;4.23;;
14143;SDS011;7152;48.348;10.980;2023-02-01T05:59:14;5.90;;;4.83;;
14143;SDS011;7152;48.348;10.980;2023-02-01T06:01:40;3.97;;;3.57;;
14143;SDS011;7152;48.348;10.980;2023-02-01T06:04:05;5.20;;;4.40;;
14143;SDS011;7152;48.348;10.980;2023-02-01T06:06:31;5.97;;;4.97;;
14143;SDS011;7152;48.348;10.980;2023-02-01T06:08:57;5.07;;;4.40;;
14143;SDS011;7152;48.348;10.980;2023-02-01T06:11:22;5.40;;;4.90;;
14143;SDS011;7152;48.348;10.980;2023-02-01T06:13:48;5.37;;;4.73;;
14143;SDS011;7152;48.348;10.980;2023-02-01T06:16:14;4.80;;;4.30;;
14143;SDS011;7152;48.348;10.980;2023-02-01T06:18:40;5.23;;;4.23;;
14143;SDS011;7152;48.348;10.980;2023-02-01T06:21:06;4.93;;;4.00;;
14143;SDS011;7152;48.348;10.980;2023-02-01T06:23:33;5.20;;;4.50;;
14143;SDS011;7152;48.348;10.980;2023-02-01T06:26:00;4.50;;;4.10;;
14143;SDS011;7152;48.348;10.980;2023-02-01T06:28:28;5.70;;;4.13;;
14143;SDS011;7152;48.348;10.980;2023-02-01T06:30:55;5.90;;;4.90;;
14143;SDS011;7152;48.348;10.980;2023-02-01T06:33:23;4.47;;;4.07;;
14143;SDS011;7152;48.348;10.980;2023-02-01T06:35:55;4.50;;;4.10;;
14143;SDS011;7152;48.348;10.980;2023-02-01T06:38:22;5.07;;;4.43;;
14143;SDS011;7152;48.348;10.980;2023-02-01T06:40:51;5.23;;;4.73;;
14143;SDS011;7152;48.348;10.980;2023-02-01T06:43:17;5.10;;;4.60;;
14143;SDS011;7152;48.348;10.980;2023-02-01T06:45:43;5.30;;;4.80;;
14143;SDS011;7152;48.348;10.980;2023-02-01T06:48:09;4.73;;;4.23;;
14143;SDS011;7152;48.348;10.980;2023-02-01T06:50:34;5.90;;;5.33;;
14143;SDS011;7152;48.348;10.980;2023-02-01T06:53:00;5.60;;;5.00;;
14143;SDS011;7152;48.348;10.980;2023-02-01T06:55:26;5.87;;;5.10;;
14143;SDS011;7152;48.348;10.980;2023-02-01T06:57:54;5.30;;;4.53;;
14143;SDS011;7152;48.348;10.980;2023-02-01T07:00:21;5.43;;;4.70;;
14143;SDS011;7152;48.348;10.980;2023-02-01T07:02:48;5.23;;;4.73;;
14143;SDS011;7152;48.348;10.980;2023-02-01T07:05:14;5.40;;;4.90;;
14143;SDS011;7152;48.348;10.980;2023-02-01T07:07:39;4.97;;;4.47;;
14143;SDS011;7152;48.348;10.980;2023-02-01T07:10:05;7.20;;;4.73;;
14143;SDS011;7152;48.348;10.980;2023-02-01T07:12:31;5.97;;;4.87;;
14143;SDS011;7152;48.348;10.980;2023-02-01T07:14:57;6.03;;;4.83;;
14143;SDS011;7152;48.348;10.980;2023-02-01T07:17:22;5.10;;;4.57;;
14143;SDS011;7152;48.348;10.980;2023-02-01T07:19:48;7.30;;;5.33;;
14143;SDS011;7152;48.348;10.980;2023-02-01T07:22:17;5.70;;;4.73;;
14143;SDS011;7152;48.348;10.980;2023-02-01T07:24:43;5.47;;;4.53;;
14143;SDS011;7152;48.348;10.980;2023-02-01T07:27:09;6.43;;;5.53;;
14143;SDS011;7152;48.348;10.980;2023-02-01T07:29:34;5.67;;;4.90;;
14143;SDS011;7152;48.348;10.980;2023-02-01T07:32:00;5.60;;;4.70;;
14143;SDS011;7152;48.348;10.980;2023-02-01T07:34:27;5.37;;;4.83;;
14143;SDS011;7152;48.348;10.980;2023-02-01T07:36:53;4.83;;;4.33;;
14143;SDS011;7152;48.348;10.980;2023-02-01T07:39:18;6.47;;;4.67;;
14143;SDS011;7152;48.348;10.980;2023-02-01T07:41:45;4.00;;;3.60;;
14143;SDS011;7152;48.348;10.980;2023-02-01T07:44:11;4.63;;;3.90;;
14143;SDS011;7152;48.348;10.980;2023-02-01T07:46:36;5.00;;;4.17;;
14143;SDS011;7152;48.348;10.980;2023-02-01T07:49:04;4.00;;;3.60;;
14143;SDS011;7152;48.348;10.980;2023-02-01T07:51:30;4.67;;;4.27;;
14143;SDS011;7152;48.348;10.980;2023-02-01T07:53:56;5.63;;;4.20;;
14143;SDS011;7152;48.348;10.980;2023-02-01T07:56:22;3.93;;;3.53;;
14143;SDS011;7152;48.348;10.980;2023-02-01T07:58:48;4.00;;;3.60;;
14143;SDS011;7152;48.348;10.980;2023-02-01T08:01:20;4.67;;;4.27;;
14143;SDS011;7152;48.348;10.980;2023-02-01T08:03:54;4.00;;;3.60;;
14143;SDS011;7152;48.348;10.980;2023-02-01T08:06:24;5.37;;;3.47;;
14143;SDS011;7152;48.348;10.980;2023-02-01T08:08:51;5.03;;;4.13;;
14143;SDS011;7152;48.348;10.980;2023-02-01T08:11:17;4.63;;;4.23;;
14143;SDS011;7152;48.348;10.980;2023-02-01T08:13:45;3.53;;;3.23;;
14143;SDS011;7152;48.348;10.980;2023-02-01T08:16:12;4.43;;;3.37;;
14143;SDS011;7152;48.348;10.980;2023-02-01T08:18:40;4.83;;;3.47;;
14143;SDS011;7152;48.348;10.980;2023-02-01T08:21:16;3.87;;;3.30;;
14143;SDS011;7152;48.348;10.980;2023-02-01T08:23:47;4.43;;;4.03;;
14143;SDS011;7152;48.348;10.980;2023-02-01T08:28:43;3.17;;;2.80;;
14143;SDS011;7152;48.348;10.980;2023-02-01T08:31:14;3.57;;;3.27;;
14143;SDS011;7152;48.348;10.980;2023-02-01T08:33:41;4.50;;;3.17;;
14143;SDS011;7152;48.348;10.980;2023-02-01T08:36:09;4.10;;;3.00;;
14143;SDS011;7152;48.348;10.980;2023-02-01T08:38:36;3.77;;;3.47;;
14143;SDS011;7152;48.348;10.980;2023-02-01T08:41:07;3.87;;;3.47;;
14143;SDS011;7152;48.348;10.980;2023-02-01T08:43:34;4.07;;;3.00;;
14143;SDS011;7152;48.348;10.980;2023-02-01T08:45:59;4.80;;;3.57;;
14143;SDS011;7152;48.348;10.980;2023-02-01T08:48:25;3.97;;;3.23;;
14143;SDS011;7152;48.348;10.980;2023-02-01T08:50:51;4.27;;;3.10;;
14143;SDS011;7152;48.348;10.980;2023-02-01T08:53:16;3.27;;;3.03;;
14143;SDS011;7152;48.348;10.980;2023-02-01T08:55:42;3.43;;;3.03;;
14143;SDS011;7152;48.348;10.980;2023-02-01T08:58:08;4.20;;;3.80;;
14143;SDS011;7152;48.348;10.980;2023-02-01T09:00:33;5.20;;;3.27;;
14143;SDS011;7152;48.348;10.980;2023-02-01T09:02:59;3.47;;;3.13;;
14143;SDS011;7152;48.348;10.980;2023-02-01T09:05:25;3.37;;;3.17;;
14143;SDS011;7152;48.348;10.980;2023-02-01T09:07:52;2.97;;;2.57;;
14143;SDS011;7152;48.348;10.980;2023-02-01T09:10:18;3.07;;;2.77;;
14143;SDS011;7152;48.348;10.980;2023-02-01T09:12:43;4.20;;;3.53;;
14143;SDS011;7152;48.348;10.980;2023-02-01T09:15:09;4.53;;;3.27;;
14143;SDS011;7152;48.348;10.980;2023-02-01T09:17:35;3.53;;;3.13;;
14143;SDS011;7152;48.348;10.980;2023-02-01T09:20:01;3.20;;;2.83;;
14143;SDS011;7152;48.348;10.980;2023-02-01T09:22:27;3.10;;;2.80;;
14143;SDS011;7152;48.348;10.980;2023-02-01T09:24:53;3.97;;;2.60;;
14143;SDS011;7152;48.348;10.980;2023-02-01T09:27:19;3.73;;;3.43;;
14143;SDS011;7152;48.348;10.980;2023-02-01T09:29:45;3.10;;;2.90;;
14143;SDS011;7152;48.348;10.980;2023-02-01T09:32:14;3.63;;;3.13;;
14143;SDS011;7152;48.348;10.980;2023-02-01T09:34:40;3.43;;;3.13;;
14143;SDS011;7152;48.348;10.980;2023-02-01T09:37:06;3.40;;;3.10;;
14143;SDS011;7152;48.348;10.980;2023-02-01T09:39:31;3.83;;;2.90;;
14143;SDS011;7152;48.348;10.980;2023-02-01T09:44:53;4.83;;;4.00;;
14143;SDS011;7152;48.348;10.980;2023-02-01T09:47:21;3.33;;;3.03;;
14143;SDS011;7152;48.348;10.980;2023-02-01T09:49:51;3.43;;;2.87;;
14143;SDS011;7152;48.348;10.980;2023-02-01T09:52:34;3.67;;;3.33;;
14143;SDS011;7152;48.348;10.980;2023-02-01T09:55:04;4.33;;;3.30;;
14143;SDS011;7152;48.348;10.980;2023-02-01T09:57:58;3.83;;;2.97;;
14143;SDS011;7152;48.348;10.980;2023-02-01T10:00:43;4.13;;;3.73;;
14143;SDS011;7152;48.348;10.980;2023-02-01T10:03:18;3.27;;;2.97;;
14143;SDS011;7152;48.348;10.980;2023-02-01T10:22:10;3.40;;;3.00;;
14143;SDS011;7152;48.348;10.980;2023-02-01T10:27:33;3.87;;;3.47;;
14143;SDS011;7152;48.348;10.980;2023-02-01T10:30:13;4.27;;;3.47;;
14143;SDS011;7152;48.348;10.980;2023-02-01T10:32:43;3.47;;;2.93;;
14143;SDS011;7152;48.348;10.980;2023-02-01T10:37:41;3.90;;;3.33;;
14143;SDS011;7152;48.348;10.980;2023-02-01T10:40:16;4.30;;;3.27;;
14143;SDS011;7152;48.348;10.980;2023-02-01T10:42:46;4.70;;;3.73;;
14143;SDS011;7152;48.348;10.980;2023-02-01T10:45:17;3.83;;;3.20;;
14143;SDS011;7152;48.348;10.980;2023-02-01T10:47:49;4.50;;;3.20;;
14143;SDS011;7152;48.348;10.980;2023-02-01T10:53:01;3.20;;;2.90;;
14143;SDS011;7152;48.348;10.980;2023-02-01T10:58:04;3.30;;;3.00;;
14143;SDS011;7152;48.348;10.980;2023-02-01T11:03:30;4.90;;;4.07;;
14143;SDS011;7152;48.348;10.980;2023-02-01T11:08:42;4.03;;;3.57;;
14143;SDS011;7152;48.348;10.980;2023-02-01T11:11:13;7.63;;;4.20;;
14143;SDS011;7152;48.348;10.980;2023-02-01T11:13:39;5.93;;;3.83;;
14143;SDS011;7152;48.348;10.980;2023-02-01T11:16:06;4.73;;;3.60;;
14143;SDS011;7152;48.348;10.980;2023-02-01T11:18:36;3.50;;;3.20;;
14143;SDS011;7152;48.348;10.980;2023-02-01T11:21:03;3.60;;;3.30;;
14143;SDS011;7152;48.348;10.980;2023-02-01T11:23:30;3.63;;;3.33;;
14143;SDS011;7152;48.348;10.980;2023-02-01T11:26:02;4.07;;;3.50;;
14143;SDS011;7152;48.348;10.980;2023-02-01T11:28:47;4.67;;;3.37;;
14143;SDS011;7152;48.348;10.980;2023-02-01T11:31:18;6.20;;;4.33;;
14143;SDS011;7152;48.348;10.980;2023-02-01T11:33:50;5.10;;;4.27;;
14143;SDS011;7152;48.348;10.980;2023-02-01T11:36:36;6.03;;;4.13;;
14143;SDS011;7152;48.348;10.980;2023-02-01T11:39:14;4.00;;;3.57;;
14143;SDS011;7152;48.348;10.980;2023-02-01T11:41:57;4.17;;;3.73;;
14143;SDS011;7152;48.348;10.980;2023-02-01T11:44:37;3.70;;;3.40;;
14143;SDS011;7152;48.348;10.980;2023-02-01T11:47:24;3.97;;;3.03;;
14143;SDS011;7152;48.348;10.980;2023-02-01T11:49:57;5.90;;;5.07;;
14143;SDS011;7152;48.348;10.980;2023-02-01T12:25:06;4.07;;;3.63;;
14143;SDS011;7152;48.348;10.980;2023-02-01T12:36:23;5.07;;;3.47;;
14143;SDS011;7152;48.348;10.980;2023-02-01T12:41:54;4.43;;;4.00;;
14143;SDS011;7152;48.348;10.980;2023-02-01T12:50:14;4.87;;;3.60;;
14143;SDS011;7152;48.348;10.980;2023-02-01T12:52:50;5.97;;;3.60;;
14143;SDS011;7152;48.348;10.980;2023-02-01T12:57:53;4.63;;;3.70;;
14143;SDS011;7152;48.348;10.980;2023-02-01T13:00:47;5.17;;;3.73;;
14143;SDS011;7152;48.348;10.980;2023-02-01T13:03:38;6.80;;;3.97;;
14143;SDS011;7152;48.348;10.980;2023-02-01T13:06:10;5.53;;;4.10;;
14143;SDS011;7152;48.348;10.980;2023-02-01T13:08:48;7.53;;;3.93;;
14143;SDS011;7152;48.348;10.980;2023-02-01T13:11:39;5.27;;;3.43;;
14143;SDS011;7152;48.348;10.980;2023-02-01T13:14:22;5.27;;;3.83;;
14143;SDS011;7152;48.348;10.980;2023-02-01T13:16:53;4.93;;;3.47;;
14143;SDS011;7152;48.348;10.980;2023-02-01T13:19:27;4.77;;;3.20;;
14143;SDS011;7152;48.348;10.980;2023-02-01T13:27:49;4.00;;;3.60;;
14143;SDS011;7152;48.348;10.980;2023-02-01T13:30:20;4.43;;;3.70;;
14143;SDS011;7152;48.348;10.980;2023-02-01T13:41:07;5.13;;;3.63;;
14143;SDS011;7152;48.348;10.980;2023-02-01T13:43:58;3.87;;;3.20;;
14143;SDS011;7152;48.348;10.980;2023-02-01T13:46:40;4.60;;;3.03;;
14143;SDS011;7152;48.348;10.980;2023-02-01T13:49:13;3.70;;;3.33;;
14143;SDS011;7152;48.348;10.980;2023-02-01T13:51:55;3.67;;;2.80;;
14143;SDS011;7152;48.348;10.980;2023-02-01T13:54:33;3.97;;;3.07;;
14143;SDS011;7152;48.348;10.980;2023-02-01T13:57:02;2.87;;;2.67;;
14143;SDS011;7152;48.348;10.980;2023-02-01T13:59:48;3.30;;;3.00;;
14143;SDS011;7152;48.348;10.980;2023-02-01T14:05:04;4.60;;;3.20;;
14143;SDS011;7152;48.348;10.980;2023-02-01T14:07:33;3.80;;;3.23;;
14143;SDS011;7152;48.348;10.980;2023-02-01T14:10:45;4.17;;;3.60;;
14143;SDS011;7152;48.348;10.980;2023-02-01T14:13:04;4.17;;;3.20;;
14143;SDS011;7152;48.348;10.980;2023-02-01T14:15:37;4.63;;;3.03;;
14143;SDS011;7152;48.348;10.980;2023-02-01T14:18:05;3.90;;;3.03;;
14143;SDS011;7152;48.348;10.980;2023-02-01T14:21:13;6.87;;;3.23;;
14143;SDS011;7152;48.348;10.980;2023-02-01T14:26:48;3.90;;;3.23;;
14143;SDS011;7152;48.348;10.980;2023-02-01T14:31:52;6.93;;;3.23;;
14143;SDS011;7152;48.348;10.980;2023-02-01T14:37:08;3.83;;;3.20;;
14143;SDS011;7152;48.348;10.980;2023-02-01T14:53:10;3.17;;;2.60;;
14143;SDS011;7152;48.348;10.980;2023-02-01T14:55:49;7.23;;;3.10;;
14143;SDS011;7152;48.348;10.980;2023-02-01T15:03:57;5.07;;;2.33;;
14143;SDS011;7152;48.348;10.980;2023-02-01T15:06:37;7.33;;;2.87;;
14143;SDS011;7152;48.348;10.980;2023-02-01T15:09:14;5.93;;;2.90;;
14143;SDS011;7152;48.348;10.980;2023-02-01T15:14:32;4.77;;;2.07;;
14143;SDS011;7152;48.348;10.980;2023-02-01T15:16:59;4.30;;;2.10;;
14143;SDS011;7152;48.348;10.980;2023-02-01T15:19:27;5.57;;;2.50;;
14143;SDS011;7152;48.348;10.980;2023-02-01T15:21:55;4.93;;;2.50;;
14143;SDS011;7152;48.348;10.980;2023-02-01T15:24:24;5.33;;;2.57;;
14143;SDS011;7152;48.348;10.980;2023-02-01T15:26:53;4.77;;;2.63;;
14143;SDS011;7152;48.348;10.980;2023-02-01T15:29:20;5.67;;;2.80;;
14143;SDS011;7152;48.348;10.980;2023-02-01T15:31:50;4.07;;;2.47;;
14143;SDS011;7152;48.348;10.980;2023-02-01T15:34:17;4.57;;;2.40;;
14143;SDS011;7152;48.348;10.980;2023-02-01T15:36:44;7.37;;;2.50;;
14143;SDS011;7152;48.348;10.980;2023-02-01T15:41:51;3.20;;;2.20;;
14143;SDS011;7152;48.348;10.980;2023-02-01T15:44:20;3.60;;;2.10;;
14143;SDS011;7152;48.348;10.980;2023-02-01T15:46:52;5.00;;;2.20;;
14143;SDS011;7152;48.348;10.980;2023-02-01T15:49:20;4.60;;;2.40;;
14143;SDS011;7152;48.348;10.980;2023-02-01T15:51:46;5.20;;;2.30;;
14143;SDS011;7152;48.348;10.980;2023-02-01T15:54:17;5.50;;;2.30;;
14143;SDS011;7152;48.348;10.980;2023-02-01T15:56:50;3.63;;;2.17;;
14143;SDS011;7152;48.348;10.980;2023-02-01T15:59:21;6.60;;;2.73;;
14143;SDS011;7152;48.348;10.980;2023-02-01T16:01:49;3.67;;;2.17;;
14143;SDS011;7152;48.348;10.980;2023-02-01T16:04:23;6.30;;;2.30;;
14143;SDS011;7152;48.348;10.980;2023-02-01T16:06:54;5.10;;;2.67;;
14143;SDS011;7152;48.348;10.980;2023-02-01T16:10:27;6.00;;;2.73;;
14143;SDS011;7152;48.348;10.980;2023-02-01T16:15:00;4.20;;;2.20;;
14143;SDS011;7152;48.348;10.980;2023-02-01T16:17:25;5.70;;;2.20;;
14143;SDS011;7152;48.348;10.980;2023-02-01T16:19:51;6.43;;;2.07;;
14143;SDS011;7152;48.348;10.980;2023-02-01T16:22:17;3.10;;;1.90;;
14143;SDS011;7152;48.348;10.980;2023-02-01T16:24:42;5.37;;;2.20;;
14143;SDS011;7152;48.348;10.980;2023-02-01T16:27:08;5.23;;;2.00;;
14143;SDS011;7152;48.348;10.980;2023-02-01T16:29:34;5.60;;;3.20;;
14143;SDS011;7152;48.348;10.980;2023-02-01T16:31:59;5.13;;;2.23;;
14143;SDS011;7152;48.348;10.980;2023-02-01T16:34:25;3.97;;;2.20;;
14143;SDS011;7152;48.348;10.980;2023-02-01T16:36:51;4.33;;;2.03;;
14143;SDS011;7152;48.348;10.980;2023-02-01T16:39:18;3.97;;;2.43;;
14143;SDS011;7152;48.348;10.980;2023-02-01T16:41:45;2.87;;;2.00;;
14143;SDS011;7152;48.348;10.980;2023-02-01T16:44:11;3.70;;;2.30;;
14143;SDS011;7152;48.348;10.980;2023-02-01T16:46:39;6.20;;;2.30;;
14143;SDS011;7152;48.348;10.980;2023-02-01T16:49:18;4.90;;;2.73;;
14143;SDS011;7152;48.348;10.980;2023-02-01T16:51:47;5.53;;;2.23;;
14143;SDS011;7152;48.348;10.980;2023-02-01T16:54:14;5.73;;;2.33;;
14143;SDS011;7152;48.348;10.980;2023-02-01T16:56:40;3.90;;;2.30;;
14143;SDS011;7152;48.348;10.980;2023-02-01T16:59:07;4.87;;;2.50;;
14143;SDS011;7152;48.348;10.980;2023-02-01T17:01:33;6.07;;;2.33;;
14143;SDS011;7152;48.348;10.980;2023-02-01T17:03:59;4.60;;;2.30;;
14143;SDS011;7152;48.348;10.980;2023-02-01T17:06:25;4.13;;;2.30;;
14143;SDS011;7152;48.348;10.980;2023-02-01T17:08:55;6.10;;;2.67;;
14143;SDS011;7152;48.348;10.980;2023-02-01T17:11:25;5.30;;;3.07;;
14143;SDS011;7152;48.348;10.980;2023-02-01T17:13:52;6.63;;;2.80;;
14143;SDS011;7152;48.348;10.980;2023-02-01T17:18:44;7.03;;;3.20;;
14143;SDS011;7152;48.348;10.980;2023-02-01T17:21:55;5.30;;;3.30;;
14143;SDS011;7152;48.348;10.980;2023-02-01T17:24:25;5.80;;;2.90;;
14143;SDS011;7152;48.348;10.980;2023-02-01T17:26:52;6.03;;;2.83;;
14143;SDS011;7152;48.348;10.980;2023-02-01T17:29:18;5.93;;;3.20;;
14143;SDS011;7152;48.348;10.980;2023-02-01T17:31:45;6.77;;;3.50;;
14143;SDS011;7152;48.348;10.980;2023-02-01T17:34:14;3.87;;;2.97;;
14143;SDS011;7152;48.348;10.980;2023-02-01T17:36:41;6.13;;;2.97;;
14143;SDS011;7152;48.348;10.980;2023-02-01T17:39:08;8.53;;;3.03;;
14143;SDS011;7152;48.348;10.980;2023-02-01T17:41:34;4.43;;;2.60;;
14143;SDS011;7152;48.348;10.980;2023-02-01T17:44:01;6.43;;;3.10;;
14143;SDS011;7152;48.348;10.980;2023-02-01T17:46:27;3.97;;;2.47;;
14143;SDS011;7152;48.348;10.980;2023-02-01T17:48:55;5.67;;;2.70;;
14143;SDS011;7152;48.348;10.980;2023-02-01T17:51:22;5.20;;;2.80;;
14143;SDS011;7152;48.348;10.980;2023-02-01T17:53:51;4.87;;;3.27;;
14143;SDS011;7152;48.348;10.980;2023-02-01T17:56:21;6.07;;;2.40;;
14143;SDS011;7152;48.348;10.980;2023-02-01T17:58:47;4.77;;;2.57;;
14143;SDS011;7152;48.348;10.980;2023-02-01T18:01:16;7.00;;;3.00;;
14143;SDS011;7152;48.348;10.980;2023-02-01T18:03:43;6.30;;;3.10;;
14143;SDS011;7152;48.348;10.980;2023-02-01T18:06:13;6.70;;;2.83;;
14143;SDS011;7152;48.348;10.980;2023-02-01T18:08:44;5.00;;;2.57;;
14143;SDS011;7152;48.348;10.980;2023-02-01T18:11:14;5.37;;;3.00;;
14143;SDS011;7152;48.348;10.980;2023-02-01T18:13:41;6.90;;;2.80;;
14143;SDS011;7152;48.348;10.980;2023-02-01T18:18:44;6.40;;;2.80;;
14143;SDS011;7152;48.348;10.980;2023-02-01T18:21:10;8.43;;;2.90;;